Cypress River, Canada
Current Conditions -  °F | °C
As of 4:00 PM on Saturday 20 Dec 2014 (Local Time) from CYBR Reporting Station
Haze Haze  
Wind Chill: 14°   Ceiling: 200
Heat Index: 23°   Visibility: 0.62mi
Dew Point: 21°   Wind: 8mph
Humidity: 93%   Direction: 130°SE
Pressure: 29.84"   Gusts: NA
Location:  49.55°N, 99.08°W
Report Text: CYBR 202200Z 13007KT 5/8SM BR VV002 M05/M06 A2984 RMK FG8 SLP131
Loading
Personal Weather Stations






























Interactive Weather Map New forecast layout! Learn more

10-Day Weather Forecast

Advertisements
Track Severe Weather on mobile